Time;durP1;ratioP1;P1;durP2;ratioP2;P2;SDS_P1;SDS_P2;PMS_P1;PMS_P2;Temp;Humidity;BMP_temperature;BMP_pressure;BME280_temperature;BME280_humidity;BME280_pressure;Samples;Min_cycle;Max_cycle;Signal;HPM_P1;HPM_P2
2023/12/27 00:04:11;;;;;;;5.03;3.33;;;;;;;-2.94;94.79;98882.59;10437974;28;20049;-62
2023/12/27 00:09:13;;;;;;;3.72;2.97;;;;;;;-2.87;93.81;98883.28;10402489;28;20059;-63
2023/12/27 00:14:16;;;;;;;3.63;2.65;;;;;;;-2.82;93.51;98878.00;10416871;28;20041;-64
2023/12/27 00:19:18;;;;;;;3.45;2.70;;;;;;;-2.82;92.71;98882.56;10441198;28;20041;-64
2023/12/27 00:24:21;;;;;;;2.90;2.50;;;;;;;-2.93;92.36;98892.28;10420212;28;20041;-64
2023/12/27 00:29:23;;;;;;;4.43;2.72;;;;;;;-2.87;92.71;98891.31;10439087;28;20045;-63
2023/12/27 00:34:25;;;;;;;4.10;2.67;;;;;;;-2.90;92.77;98902.53;10434275;28;20041;-64
2023/12/27 00:39:30;;;;;;;3.85;2.60;;;;;;;-2.78;92.66;98897.13;10438107;28;20038;-63
2023/12/27 00:44:32;;;;;;;4.38;2.75;;;;;;;-2.71;92.47;98888.94;10441046;28;20057;-63
2023/12/27 00:49:35;;;;;;;5.65;3.10;;;;;;;-2.65;92.24;98885.31;10440241;28;20049;-63
2023/12/27 00:54:37;;;;;;;3.88;2.92;;;;;;;-2.68;92.44;98896.53;10445853;28;20037;-63
2023/12/27 00:59:39;;;;;;;5.55;3.40;;;;;;;-2.64;92.53;98889.63;10432227;28;20038;-63
2023/12/27 01:04:42;;;;;;;5.70;3.58;;;;;;;-2.62;92.81;98892.88;10446624;28;20540;-63
2023/12/27 01:09:44;;;;;;;4.72;3.17;;;;;;;-2.66;91.79;98892.53;10444060;28;20503;-66
2023/12/27 01:14:46;;;;;;;5.88;3.58;;;;;;;-2.55;92.46;98905.13;10447526;28;20512;-63
2023/12/27 01:19:49;;;;;;;5.72;3.53;;;;;;;-2.61;91.82;98900.69;10448722;28;20030;-62
2023/12/27 01:24:52;;;;;;;6.15;3.47;;;;;;;-2.59;91.84;98909.34;10437576;28;20046;-62
2023/12/27 01:29:54;;;;;;;6.03;3.92;;;;;;;-2.56;92.47;98906.19;10435391;28;20029;-63
2023/12/27 01:34:57;;;;;;;5.43;3.20;;;;;;;-2.50;92.17;98909.78;10429496;28;20042;-61
2023/12/27 01:40:00;;;;;;;6.25;3.83;;;;;;;-2.48;92.31;98918.41;10443255;28;20036;-62
2023/12/27 01:45:03;;;;;;;6.78;3.72;;;;;;;-2.46;91.66;98916.28;10443843;28;20061;-63
2023/12/27 01:50:09;;;;;;;6.07;3.72;;;;;;;-2.44;92.07;98919.56;10428854;28;20041;-63
2023/12/27 01:55:13;;;;;;;7.60;3.97;;;;;;;-2.44;92.10;98915.00;10440245;28;20041;-64
2023/12/27 02:00:16;;;;;;;7.20;4.05;;;;;;;-2.45;92.01;98918.75;10436609;28;20509;-63
2023/12/27 02:05:19;;;;;;;10.68;4.75;;;;;;;-2.59;92.29;98925.47;10427301;28;20060;-62
2023/12/27 02:10:21;;;;;;;10.40;5.05;;;;;;;-2.52;93.21;98925.31;10439754;28;20532;-61
2023/12/27 02:15:25;;;;;;;7.72;5.18;;;;;;;-2.39;93.43;98919.69;10440500;28;20041;-62
2023/12/27 02:20:34;;;;;;;9.05;4.75;;;;;;;-2.41;92.84;98916.41;10403595;28;20042;-63
2023/12/27 02:25:36;;;;;;;8.75;4.63;;;;;;;-2.38;92.64;98921.31;10413635;28;20041;-63
2023/12/27 02:30:40;;;;;;;9.48;5.15;;;;;;;-2.41;92.95;98926.34;10415526;28;20041;-63
2023/12/27 02:35:43;;;;;;;10.25;5.53;;;;;;;-2.35;93.50;98922.69;10437260;28;20120;-63
2023/12/27 02:40:46;;;;;;;9.20;5.47;;;;;;;-2.39;93.53;98914.31;10443675;28;20038;-63
2023/12/27 02:45:48;;;;;;;12.65;6.05;;;;;;;-2.43;93.72;98918.50;10441486;28;20527;-63
2023/12/27 02:50:51;;;;;;;11.65;5.47;;;;;;;-2.47;94.09;98918.16;10441071;28;20508;-62
2023/12/27 02:55:55;;;;;;;9.35;5.72;;;;;;;-2.48;93.69;98918.41;10434755;28;20492;-62
2023/12/27 03:00:57;;;;;;;11.60;6.47;;;;;;;-2.52;94.34;98936.06;10442228;28;20042;-62
2023/12/27 03:05:59;;;;;;;13.60;5.97;;;;;;;-2.55;94.51;98939.22;10430710;28;20048;-63
2023/12/27 03:11:02;;;;;;;11.90;6.57;;;;;;;-2.57;94.32;98938.66;10440614;28;20041;-63
2023/12/27 03:16:05;;;;;;;10.50;5.82;;;;;;;-2.60;94.93;98933.75;10422841;28;20038;-62
2023/12/27 03:21:07;;;;;;;13.07;6.50;;;;;;;-2.64;94.56;98935.25;10439423;28;20044;-63
2023/12/27 03:26:10;;;;;;;10.75;6.05;;;;;;;-2.64;94.84;98936.09;10407469;28;20046;-62
2023/12/27 03:31:13;;;;;;;10.07;5.80;;;;;;;-2.65;94.82;98960.47;10402357;28;20045;-62
2023/12/27 03:36:15;;;;;;;13.40;7.30;;;;;;;-2.72;94.67;98962.50;10424365;28;20064;-63
2023/12/27 03:41:17;;;;;;;12.10;6.63;;;;;;;-2.78;95.06;98973.13;10442543;28;20078;-63
2023/12/27 03:46:19;;;;;;;15.05;7.65;;;;;;;-2.70;95.86;98968.44;10432101;28;20072;-62
2023/12/27 03:51:22;;;;;;;16.15;8.85;;;;;;;-2.92;95.20;98978.97;10402868;28;20445;-62
2023/12/27 03:56:24;;;;;;;18.55;9.23;;;;;;;-3.06;95.20;98978.38;10408946;28;20034;-63
2023/12/27 04:01:27;;;;;;;15.82;8.00;;;;;;;-3.09;95.16;98986.91;10417308;28;20048;-63
2023/12/27 04:06:30;;;;;;;11.57;5.93;;;;;;;-3.04;95.59;98978.97;10418469;28;20125;-63
2023/12/27 04:11:32;;;;;;;12.63;6.05;;;;;;;-3.06;95.23;98973.03;10406914;28;20445;-64
2023/12/27 04:16:36;;;;;;;12.43;6.13;;;;;;;-3.08;95.34;98975.94;10428553;28;20037;-65
2023/12/27 04:21:41;;;;;;;14.27;6.75;;;;;;;-3.16;94.88;98970.91;10420079;28;20034;-65
2023/12/27 04:26:43;;;;;;;12.30;5.78;;;;;;;-3.13;94.57;98973.13;10433790;28;20045;-64
2023/12/27 04:31:46;;;;;;;9.70;5.47;;;;;;;-3.20;94.68;98982.34;10445494;28;20042;-63
2023/12/27 04:36:49;;;;;;;9.50;5.30;;;;;;;-3.15;95.09;98979.78;10449990;28;20088;-63
2023/12/27 04:41:51;;;;;;;8.85;5.32;;;;;;;-3.26;94.96;98985.97;10413617;28;20044;-63
2023/12/27 04:46:54;;;;;;;11.32;5.97;;;;;;;-3.26;95.36;98988.66;10432385;28;20049;-64
2023/12/27 04:51:56;;;;;;;9.35;5.43;;;;;;;-3.37;95.26;98988.38;10468261;28;20049;-64
2023/12/27 04:56:59;;;;;;;10.77;5.43;;;;;;;-3.40;95.81;98983.50;10423252;28;20037;-64
2023/12/27 05:02:01;;;;;;;12.27;5.22;;;;;;;-3.22;96.19;98987.13;10446868;28;20052;-65
2023/12/27 05:07:03;;;;;;;7.18;5.07;;;;;;;-3.21;95.75;98988.75;10442729;28;20041;-65
2023/12/27 05:12:06;;;;;;;12.30;6.00;;;;;;;-3.21;95.11;98996.81;10426141;28;20045;-63
2023/12/27 05:17:08;;;;;;;12.32;5.38;;;;;;;-3.22;95.29;99005.91;10414741;28;20041;-63
2023/12/27 05:22:11;;;;;;;12.20;5.78;;;;;;;-3.18;95.69;99007.88;10447271;28;20037;-63
2023/12/27 05:27:13;;;;;;;8.68;4.53;;;;;;;-3.17;95.24;99008.69;10444768;28;20044;-64
2023/12/27 05:32:16;;;;;;;8.00;5.07;;;;;;;-3.09;95.39;99006.50;10442345;28;20049;-64
2023/12/27 05:37:20;;;;;;;11.57;5.10;;;;;;;-3.18;95.44;99012.44;10445344;28;20041;-65
2023/12/27 05:42:23;;;;;;;10.82;5.10;;;;;;;-3.08;95.54;99012.69;10440651;28;20045;-64
2023/12/27 05:47:25;;;;;;;11.45;5.22;;;;;;;-3.08;95.15;99012.69;10432672;28;20543;-65
2023/12/27 05:52:27;;;;;;;11.25;5.57;;;;;;;-3.06;94.80;99018.63;10446309;28;20053;-65
2023/12/27 05:57:30;;;;;;;11.43;5.07;;;;;;;-3.11;95.06;99026.56;10439029;28;20508;-64
2023/12/27 06:02:33;;;;;;;13.30;5.50;;;;;;;-3.12;95.35;99019.56;10445200;28;20044;-64
2023/12/27 06:07:35;;;;;;;15.32;6.35;;;;;;;-3.19;95.56;99032.25;10442943;28;20046;-64
2023/12/27 06:12:38;;;;;;;13.85;5.53;;;;;;;-3.20;95.64;99036.00;10443437;28;20045;-64
2023/12/27 06:17:40;;;;;;;15.63;7.70;;;;;;;-3.23;95.76;99036.47;10444754;28;20416;-64
2023/12/27 06:22:43;;;;;;;16.98;7.57;;;;;;;-3.36;96.21;99037.47;10443303;28;20080;-64
2023/12/27 06:27:45;;;;;;;12.82;6.05;;;;;;;-3.39;96.35;99045.97;10434584;28;20061;-65
2023/12/27 06:32:47;;;;;;;14.25;6.28;;;;;;;-3.32;96.82;99057.41;10442785;28;20048;-65
2023/12/27 06:37:49;;;;;;;14.30;6.28;;;;;;;-3.31;96.90;99055.56;10442318;28;20060;-65
2023/12/27 06:42:52;;;;;;;17.02;6.40;;;;;;;-3.31;96.81;99060.91;10434774;28;20038;-65
2023/12/27 06:47:54;;;;;;;15.02;6.32;;;;;;;-3.29;97.19;99059.66;10436367;28;20041;-65
2023/12/27 06:52:56;;;;;;;13.13;6.32;;;;;;;-3.27;97.16;99068.28;10440987;28;20056;-64
2023/12/27 06:57:59;;;;;;;11.38;6.00;;;;;;;-3.40;96.72;99074.66;10439832;28;20030;-64
2023/12/27 07:03:02;;;;;;;14.57;7.20;;;;;;;-3.38;96.95;99072.56;10439451;28;20037;-64
2023/12/27 07:08:05;;;;;;;14.70;7.45;;;;;;;-3.29;97.14;99083.00;10442529;28;20049;-64
2023/12/27 07:13:09;;;;;;;16.55;6.38;;;;;;;-3.27;97.34;99095.13;10434038;28;20042;-64
2023/12/27 07:18:12;;;;;;;14.00;7.47;;;;;;;-3.23;97.39;99090.91;10434753;28;20041;-64
2023/12/27 07:23:14;;;;;;;15.73;7.40;;;;;;;-3.24;97.24;99096.50;10438954;28;20041;-64
2023/12/27 07:28:17;;;;;;;16.92;6.75;;;;;;;-3.13;97.04;99101.88;10441555;28;20517;-63
2023/12/27 07:33:19;;;;;;;10.10;5.82;;;;;;;-3.08;96.40;99103.91;10434201;28;20048;-64
2023/12/27 07:38:23;;;;;;;11.60;5.50;;;;;;;-3.02;95.57;99097.59;10433307;28;20056;-65
2023/12/27 07:43:26;;;;;;;15.63;6.15;;;;;;;-2.87;94.70;99110.59;10439556;28;20072;-65
2023/12/27 07:48:29;;;;;;;20.42;8.57;;;;;;;-2.81;94.13;99115.84;10441997;28;20037;-65
2023/12/27 07:53:33;;;;;;;15.00;7.40;;;;;;;-2.79;93.30;99119.09;10436886;28;20037;-65
2023/12/27 07:58:38;;;;;;;11.48;6.97;;;;;;;-2.71;93.30;99120.66;10424724;28;20512;-65
2023/12/27 08:03:40;;;;;;;12.63;6.38;;;;;;;-2.71;93.12;99119.81;10436952;28;20136;-65
2023/12/27 08:08:43;;;;;;;14.73;6.03;;;;;;;-2.80;92.36;99122.84;10456002;28;20412;-69
2023/12/27 08:13:46;;;;;;;10.35;5.15;;;;;;;-2.74;92.64;99132.66;10427439;28;20033;-70
2023/12/27 08:18:49;;;;;;;11.55;6.65;;;;;;;-2.67;92.47;99137.09;10441248;28;20440;-70
2023/12/27 08:23:53;;;;;;;12.27;6.50;;;;;;;-2.53;92.27;99143.88;10437646;28;20052;-69
2023/12/27 08:28:55;;;;;;;13.93;6.32;;;;;;;-2.47;92.27;99151.00;10441021;28;20045;-70
2023/12/27 08:33:59;;;;;;;16.33;6.65;;;;;;;-2.43;91.70;99152.16;10426222;28;20034;-70
2023/12/27 08:39:02;;;;;;;14.38;6.45;;;;;;;-2.44;91.63;99151.34;10440858;28;20033;-70
2023/12/27 08:44:05;;;;;;;13.50;6.65;;;;;;;-2.42;92.00;99156.50;10435922;28;20041;-70
2023/12/27 08:49:08;;;;;;;16.60;7.93;;;;;;;-2.30;91.86;99161.88;10436792;28;20045;-70
2023/12/27 08:54:10;;;;;;;15.60;6.85;;;;;;;-2.29;91.83;99158.94;10439972;28;20041;-69
2023/12/27 08:59:13;;;;;;;16.30;7.28;;;;;;;-2.28;91.60;99168.63;10440228;28;20038;-69
2023/12/27 09:04:18;;;;;;;12.50;6.82;;;;;;;-2.27;91.77;99170.28;10442540;28;20080;-70
2023/12/27 09:09:21;;;;;;;13.43;5.75;;;;;;;-2.35;91.25;99180.56;10446344;28;20052;-69
2023/12/27 09:14:24;;;;;;;13.00;5.85;;;;;;;-2.38;91.84;99179.16;10417229;28;20033;-71
2023/12/27 09:19:26;;;;;;;15.25;7.07;;;;;;;-2.37;91.59;99183.50;10415255;28;20046;-71
2023/12/27 09:24:29;;;;;;;15.57;7.25;;;;;;;-2.40;91.67;99183.97;10415340;28;20045;-70
2023/12/27 09:29:31;;;;;;;12.00;6.20;;;;;;;-2.36;92.23;99195.88;10432797;28;20502;-70
2023/12/27 09:34:34;;;;;;;12.48;6.75;;;;;;;-2.48;91.98;99190.47;10438063;28;20103;-69
2023/12/27 09:39:37;;;;;;;13.27;7.28;;;;;;;-2.36;93.05;99193.19;10444806;28;20045;-69
2023/12/27 09:44:42;;;;;;;16.58;7.45;;;;;;;-2.28;93.30;99197.38;10442559;28;20442;-67
2023/12/27 09:49:44;;;;;;;15.82;7.38;;;;;;;-2.29;93.03;99193.06;10433435;28;20034;-68
2023/12/27 09:54:47;;;;;;;18.05;8.25;;;;;;;-2.26;93.16;99197.97;10416994;28;20089;-70
2023/12/27 09:59:51;;;;;;;21.27;9.80;;;;;;;-2.32;93.23;99194.34;10425024;28;20057;-70
2023/12/27 10:05:03;;;;;;;20.48;8.45;;;;;;;-2.24;93.77;99195.88;10422849;28;20045;-69
2023/12/27 10:10:09;;;;;;;15.75;7.78;;;;;;;-2.20;93.82;99197.84;10431016;28;20072;-72
2023/12/27 10:15:14;;;;;;;17.23;8.88;;;;;;;-2.19;93.46;99194.13;10429580;28;20508;-71
2023/12/27 10:20:36;;;;;;;18.92;9.25;;;;;;;-2.20;92.95;99200.53;10435851;28;20045;-70
2023/12/27 10:25:40;;;;;;;20.77;9.10;;;;;;;-2.14;93.17;99207.66;10435088;28;20034;-70
2023/12/27 10:30:44;;;;;;;20.50;9.27;;;;;;;-2.22;92.99;99213.41;10419142;28;20042;-70
2023/12/27 10:35:47;;;;;;;21.80;9.82;;;;;;;-2.23;93.58;99209.06;10436984;28;20044;-70
2023/12/27 10:40:52;;;;;;;17.42;9.68;;;;;;;-2.31;93.94;99216.66;10433556;28;20029;-71
2023/12/27 10:45:55;;;;;;;14.73;7.07;;;;;;;-2.35;94.48;99220.84;10419127;28;20041;-71
2023/12/27 10:50:58;;;;;;;14.50;7.13;;;;;;;-2.21;94.44;99220.41;10412796;28;20045;-70
2023/12/27 10:56:03;;;;;;;14.30;7.05;;;;;;;-2.12;93.84;99229.75;10411369;28;20053;-69
2023/12/27 11:01:07;;;;;;;14.77;7.35;;;;;;;-2.09;93.36;99235.69;10435396;28;20500;-70
2023/12/27 11:06:13;;;;;;;12.80;6.80;;;;;;;-2.15;93.31;99251.72;10432802;28;20037;-69
2023/12/27 11:11:17;;;;;;;13.27;6.35;;;;;;;-2.16;93.05;99247.38;10438798;28;20033;-68
2023/12/27 11:16:22;;;;;;;14.38;7.40;;;;;;;-2.15;93.30;99251.72;10422987;28;20033;-67
2023/12/27 11:21:26;;;;;;;12.07;6.90;;;;;;;-2.21;93.30;99267.97;10423065;28;20033;-69
2023/12/27 11:26:33;;;;;;;20.58;8.00;;;;;;;-2.23;93.70;99264.69;10435408;28;20040;-69
2023/12/27 11:31:36;;;;;;;18.55;8.80;;;;;;;-2.34;93.54;99274.34;10424431;28;20116;-70
2023/12/27 11:36:40;;;;;;;17.42;8.95;;;;;;;-2.37;93.51;99277.50;10435846;28;20033;-70
2023/12/27 11:41:43;;;;;;;16.58;8.48;;;;;;;-2.38;93.90;99272.38;10437678;28;20029;-71
2023/12/27 11:46:46;;;;;;;19.70;7.55;;;;;;;-2.32;94.11;99285.69;10416421;28;20057;-72
2023/12/27 11:51:51;;;;;;;16.10;7.78;;;;;;;-2.33;93.48;99281.34;10418498;28;20081;-71
2023/12/27 11:56:55;;;;;;;22.48;11.68;;;;;;;-2.30;93.75;99283.56;10401225;28;20041;-69
2023/12/27 12:01:59;;;;;;;21.17;11.30;;;;;;;-2.31;93.98;99290.00;10425562;28;20033;-69
2023/12/27 12:07:32;;;;;;;17.45;8.13;;;;;;;-2.29;93.64;99293.28;10436299;28;20033;-67
2023/12/27 12:12:37;;;;;;;15.50;8.48;;;;;;;-2.34;94.22;99298.53;10425336;28;20544;-67
2023/12/27 12:17:40;;;;;;;17.27;9.27;;;;;;;-2.46;95.01;99303.84;10419334;28;20037;-67
2023/12/27 12:22:44;;;;;;;16.50;9.00;;;;;;;-2.51;95.43;99309.09;10436592;28;20064;-67
2023/12/27 12:27:48;;;;;;;15.27;8.25;;;;;;;-2.57;94.84;99325.31;10440829;28;20060;-67
2023/12/27 12:32:51;;;;;;;16.13;8.63;;;;;;;-2.86;95.19;99319.72;10414893;28;20049;-67
2023/12/27 12:37:54;;;;;;;21.45;9.05;;;;;;;-2.95;95.16;99329.13;10428815;28;20041;-69
2023/12/27 12:42:56;;;;;;;22.42;9.55;;;;;;;-3.00;95.60;99334.34;10432885;28;20029;-67
2023/12/27 12:47:59;;;;;;;13.55;7.38;;;;;;;-3.20;96.09;99325.69;10444137;28;20465;-67
2023/12/27 12:53:18;;;;;;;13.57;7.22;;;;;;;-3.39;96.67;99339.13;10423574;28;20034;-65
2023/12/27 12:58:23;;;;;;;19.77;8.48;;;;;;;-3.48;96.67;99350.34;10443485;28;20084;-65
2023/12/27 13:03:32;;;;;;;8.30;6.40;;;;;;;-3.59;96.79;99357.25;10416452;28;20046;-65
2023/12/27 13:08:36;;;;;;;13.40;6.47;;;;;;;-3.61;97.02;99364.72;10417966;28;20048;-66
2023/12/27 13:13:38;;;;;;;11.77;6.18;;;;;;;-3.70;97.09;99369.53;10416927;28;20421;-65
2023/12/27 13:18:41;;;;;;;12.10;6.32;;;;;;;-3.68;96.86;99366.63;10418328;28;20421;-65
2023/12/27 13:23:44;;;;;;;13.07;5.75;;;;;;;-3.70;97.33;99376.75;10446174;28;20052;-67
2023/12/27 13:28:46;;;;;;;16.13;6.88;;;;;;;-3.60;97.29;99379.75;10441186;28;20523;-67
2023/12/27 13:33:49;;;;;;;10.60;5.32;;;;;;;-3.62;97.07;99387.19;10443995;28;20420;-67
2023/12/27 13:38:51;;;;;;;9.13;5.32;;;;;;;-3.69;97.16;99394.47;10444921;28;20409;-66
2023/12/27 13:43:53;;;;;;;15.68;7.25;;;;;;;-3.76;97.30;99404.44;10434049;28;20057;-66
2023/12/27 13:48:56;;;;;;;12.20;5.35;;;;;;;-3.73;97.11;99404.00;10424223;28;20033;-66
2023/12/27 13:53:58;;;;;;;7.65;5.03;;;;;;;-3.74;96.70;99394.31;10421261;28;20704;-65
2023/12/27 13:59:00;;;;;;;7.63;4.20;;;;;;;-3.84;97.32;99405.50;10422555;28;20037;-66
2023/12/27 14:04:06;;;;;;;11.32;5.18;;;;;;;-4.01;96.99;99423.97;10422751;28;20038;-67
2023/12/27 14:09:08;;;;;;;10.02;4.93;;;;;;;-3.91;97.66;99422.69;10435033;28;20456;-67
2023/12/27 14:14:11;;;;;;;9.55;4.43;;;;;;;-4.00;97.68;99430.16;10424214;28;20037;-67
2023/12/27 14:19:15;;;;;;;7.22;2.83;;;;;;;-4.13;97.33;99423.03;10433024;28;20038;-67
2023/12/27 14:24:18;;;;;;;9.07;4.70;;;;;;;-4.13;97.95;99439.09;10413658;28;20049;-67
2023/12/27 14:29:21;;;;;;;11.52;4.47;;;;;;;-4.14;97.62;99450.88;10412720;28;20045;-67
2023/12/27 14:34:23;;;;;;;8.15;4.15;;;;;;;-4.14;97.61;99453.53;10439449;28;20038;-67
2023/12/27 14:39:27;;;;;;;7.47;3.35;;;;;;;-4.05;97.09;99454.91;10405446;28;20040;-67
2023/12/27 14:44:30;;;;;;;8.13;4.35;;;;;;;-4.18;97.07;99472.91;10410926;28;20445;-66
2023/12/27 14:49:32;;;;;;;6.28;3.63;;;;;;;-4.18;97.10;99473.72;10411040;28;20043;-67
2023/12/27 14:54:34;;;;;;;5.60;3.72;;;;;;;-3.98;96.72;99476.31;10436363;28;20033;-66
2023/12/27 14:59:37;;;;;;;6.60;3.10;;;;;;;-3.66;95.55;99485.97;10438954;28;20030;-66
2023/12/27 15:04:40;;;;;;;5.82;3.92;;;;;;;-3.57;95.07;99489.25;10411285;28;20052;-64
2023/12/27 15:09:43;;;;;;;6.95;4.00;;;;;;;-3.80;94.70;99492.50;10387930;28;20034;-66
2023/12/27 15:14:45;;;;;;;6.55;3.53;;;;;;;-3.49;94.77;99502.34;10424446;28;20500;-68
2023/12/27 15:19:48;;;;;;;4.43;3.10;;;;;;;-3.84;93.80;99501.97;10432268;28;20037;-65
2023/12/27 15:24:50;;;;;;;6.32;3.35;;;;;;;-4.14;93.40;99522.38;10421866;28;20546;-64
2023/12/27 15:29:57;;;;;;;9.27;3.88;;;;;;;-4.38;94.28;99521.22;10409145;28;20564;-65
2023/12/27 15:34:59;;;;;;;6.53;3.88;;;;;;;-4.42;94.61;99528.03;10419971;28;20029;-65
2023/12/27 15:40:04;;;;;;;7.15;3.50;;;;;;;-4.56;94.31;99533.41;10435118;28;20033;-65
2023/12/27 15:45:07;;;;;;;6.45;3.42;;;;;;;-4.49;94.32;99545.97;10405641;28;20049;-66
2023/12/27 15:50:10;;;;;;;8.75;3.78;;;;;;;-4.38;94.08;99559.50;10417009;28;20172;-64
2023/12/27 15:55:17;;;;;;;3.22;2.90;;;;;;;-4.11;93.96;99559.44;10420989;28;20037;-64
2023/12/27 16:00:19;;;;;;;7.05;2.92;;;;;;;-4.25;92.62;99559.47;10430297;28;20036;-65
2023/12/27 16:05:22;;;;;;;6.30;3.38;;;;;;;-4.34;91.87;99571.47;10438567;28;20037;-66
2023/12/27 16:10:26;;;;;;;6.00;3.35;;;;;;;-4.42;92.29;99570.88;10425433;28;20044;-65
2023/12/27 16:15:29;;;;;;;6.80;4.10;;;;;;;-4.51;92.33;99589.03;10438653;28;20044;-66
2023/12/27 16:20:32;;;;;;;5.70;3.15;;;;;;;-4.50;92.76;99592.53;10450880;28;20413;-64
2023/12/27 16:25:39;;;;;;;8.25;3.25;;;;;;;-4.25;91.05;99598.84;10435129;28;20043;-65
2023/12/27 16:30:42;;;;;;;9.80;4.70;;;;;;;-4.74;91.21;99613.53;10436015;28;20414;-65
2023/12/27 16:35:45;;;;;;;8.55;4.85;;;;;;;-4.47;92.79;99619.69;10442826;28;20416;-67
2023/12/27 16:40:50;;;;;;;8.13;4.35;;;;;;;-4.61;92.20;99637.63;10420970;28;20045;-68
2023/12/27 16:45:53;;;;;;;6.85;4.00;;;;;;;-4.19;92.24;99637.34;10434462;28;20053;-64
2023/12/27 16:50:56;;;;;;;5.07;3.10;;;;;;;-4.21;91.29;99640.22;10438768;28;20033;-64
2023/12/27 16:55:58;;;;;;;6.10;3.33;;;;;;;-4.28;90.27;99644.78;10438287;28;20417;-62
2023/12/27 17:01:01;;;;;;;4.50;3.33;;;;;;;-4.49;90.34;99655.75;10431836;28;20060;-63
2023/12/27 17:06:03;;;;;;;5.53;2.08;;;;;;;-4.39;90.59;99658.81;10436148;28;20041;-62
2023/12/27 17:11:06;;;;;;;5.95;3.45;;;;;;;-4.52;90.23;99669.53;10431136;28;20053;-63
2023/12/27 17:16:09;;;;;;;4.60;2.97;;;;;;;-4.71;89.55;99672.00;10434767;28;20039;-63
2023/12/27 17:21:12;;;;;;;6.32;3.53;;;;;;;-4.08;90.00;99682.25;10416705;28;20046;-63
2023/12/27 17:26:15;;;;;;;4.88;2.88;;;;;;;-4.64;88.33;99680.88;10433449;28;20136;-63
2023/12/27 17:31:17;;;;;;;7.10;2.83;;;;;;;-4.58;90.21;99703.31;10437538;28;20049;-64
2023/12/27 17:36:19;;;;;;;4.60;3.22;;;;;;;-4.88;89.72;99716.25;10446492;28;20072;-66
2023/12/27 17:41:22;;;;;;;5.38;2.85;;;;;;;-5.12;90.16;99722.16;10441872;28;20045;-66
2023/12/27 17:46:24;;;;;;;5.00;3.35;;;;;;;-4.88;89.55;99730.44;10445545;28;20050;-67
2023/12/27 17:51:29;;;;;;;4.72;3.15;;;;;;;-4.90;90.71;99747.72;10445246;28;20037;-65
2023/12/27 17:56:31;;;;;;;7.53;3.45;;;;;;;-5.17;90.51;99766.41;10432083;28;20038;-64
2023/12/27 18:01:34;;;;;;;6.78;3.67;;;;;;;-4.99;89.50;99759.66;10434506;28;20037;-64
2023/12/27 18:06:36;;;;;;;8.07;3.22;;;;;;;-5.88;90.68;99779.22;10424044;28;20517;-65
2023/12/27 18:11:38;;;;;;;6.32;2.65;;;;;;;-6.61;93.03;99790.34;10428059;28;20037;-65
2023/12/27 18:16:41;;;;;;;6.38;3.30;;;;;;;-6.84;96.68;99803.88;10431705;28;20041;-65
2023/12/27 18:21:45;;;;;;;6.55;3.70;;;;;;;-6.68;97.77;99814.28;10443124;28;20033;-64
2023/12/27 18:26:49;;;;;;;8.32;4.20;;;;;;;-6.70;98.65;99824.34;10440029;28;20428;-63
2023/12/27 18:31:52;;;;;;;9.48;4.45;;;;;;;-6.62;98.47;99837.53;10447249;28;20045;-63
2023/12/27 18:36:54;;;;;;;7.32;3.22;;;;;;;-6.89;98.97;99849.78;10432690;28;20052;-63
2023/12/27 18:41:56;;;;;;;7.28;3.45;;;;;;;-6.29;100.00;99855.72;10419155;28;20057;-63
2023/12/27 18:46:59;;;;;;;8.95;3.63;;;;;;;-6.27;100.00;99861.69;10424435;28;20437;-63
2023/12/27 18:52:01;;;;;;;6.00;3.03;;;;;;;-5.92;100.00;99867.94;10438271;28;20045;-64
2023/12/27 18:57:04;;;;;;;5.15;2.95;;;;;;;-6.42;99.26;99878.63;10435464;28;20044;-64
2023/12/27 19:02:07;;;;;;;8.05;3.17;;;;;;;-6.19;99.91;99890.94;10422837;28;20417;-62
2023/12/27 19:07:10;;;;;;;7.20;3.70;;;;;;;-5.58;98.85;99899.22;10436299;28;20045;-63
2023/12/27 19:12:12;;;;;;;5.85;3.25;;;;;;;-5.59;98.41;99910.94;10431731;28;20034;-65
2023/12/27 19:17:15;;;;;;;8.38;3.22;;;;;;;-5.69;97.77;99913.13;10433016;28;20045;-64
2023/12/27 19:22:18;;;;;;;6.60;3.28;;;;;;;-5.62;97.82;99916.66;10412232;28;20029;-65
2023/12/27 19:27:20;;;;;;;8.93;3.28;;;;;;;-5.70;96.82;99917.66;10432859;28;20049;-64
2023/12/27 19:32:23;;;;;;;5.75;2.78;;;;;;;-5.28;96.88;99924.72;10428334;28;20044;-64
2023/12/27 19:37:25;;;;;;;6.45;2.88;;;;;;;-5.62;95.89;99940.72;10416201;28;20037;-64
2023/12/27 19:42:28;;;;;;;5.72;2.72;;;;;;;-5.36;95.89;99940.94;10406173;28;20584;-65
2023/12/27 19:47:30;;;;;;;6.35;3.13;;;;;;;-5.15;95.22;99961.44;10427286;28;20057;-64
2023/12/27 19:52:33;;;;;;;5.97;3.20;;;;;;;-5.28;94.39;99972.84;10428784;28;20493;-65
2023/12/27 19:57:35;;;;;;;5.35;3.13;;;;;;;-5.46;92.60;99975.19;10423318;28;20741;-65
2023/12/27 20:02:39;;;;;;;4.55;3.30;;;;;;;-5.51;91.89;99986.47;10425998;28;20136;-65
2023/12/27 20:07:41;;;;;;;11.32;5.18;;;;;;;-5.62;91.74;99994.16;10403689;28;20044;-66
2023/12/27 20:12:43;;;;;;;10.63;4.72;;;;;;;-5.90;91.54;100004.81;10438580;28;20116;-63
2023/12/27 20:17:46;;;;;;;9.93;5.00;;;;;;;-6.13;92.26;100007.66;10438933;28;20041;-65
2023/12/27 20:22:50;;;;;;;8.48;5.00;;;;;;;-6.11;92.62;100017.13;10432769;28;20033;-64
2023/12/27 20:27:53;;;;;;;9.95;5.25;;;;;;;-6.08;93.12;100021.28;10401377;28;20485;-64
2023/12/27 20:32:55;;;;;;;9.65;4.63;;;;;;;-5.82;92.96;100029.53;10437214;28;20060;-65
2023/12/27 20:37:58;;;;;;;7.57;4.00;;;;;;;-6.05;92.36;100047.63;10440274;28;20052;-64
2023/12/27 20:43:02;;;;;;;8.95;4.40;;;;;;;-6.41;92.72;100063.63;10404513;28;20609;-65
2023/12/27 20:48:04;;;;;;;8.20;4.10;;;;;;;-6.43;93.86;100071.78;10432956;28;20030;-66
2023/12/27 20:53:07;;;;;;;7.63;4.32;;;;;;;-6.40;94.61;100083.94;10411170;28;20037;-66
2023/12/27 20:58:10;;;;;;;11.35;6.03;;;;;;;-6.26;94.61;100082.25;10418790;28;20046;-66
2023/12/27 21:03:13;;;;;;;13.10;5.93;;;;;;;-6.06;95.02;100098.56;10434499;28;20045;-67
2023/12/27 21:08:15;;;;;;;11.10;6.15;;;;;;;-6.09;94.20;100097.88;10432294;28;20042;-65
2023/12/27 21:13:17;;;;;;;13.23;6.78;;;;;;;-6.42;94.59;100104.63;10432090;28;20057;-65
2023/12/27 21:18:21;;;;;;;14.52;6.85;;;;;;;-6.23;94.53;100108.63;10430547;28;20517;-66
2023/12/27 21:23:23;;;;;;;11.38;6.00;;;;;;;-6.29;94.51;100120.84;10426623;28;20120;-65
2023/12/27 21:28:25;;;;;;;13.15;7.25;;;;;;;-5.20;95.82;100127.00;10420369;28;20052;-66
2023/12/27 21:33:28;;;;;;;15.75;7.68;;;;;;;-5.72;93.01;100137.97;10425565;28;20048;-65
2023/12/27 21:38:30;;;;;;;14.40;7.60;;;;;;;-5.67;91.89;100152.44;10429981;28;20041;-66
2023/12/27 21:43:33;;;;;;;12.88;6.88;;;;;;;-5.94;91.37;100161.97;10417323;28;20057;-67
2023/12/27 21:48:35;;;;;;;16.88;8.18;;;;;;;-6.04;91.73;100173.97;10419560;28;20042;-66
2023/12/27 21:53:37;;;;;;;17.50;7.82;;;;;;;-6.17;91.27;100183.47;10427589;28;20033;-66
2023/12/27 21:58:40;;;;;;;13.77;7.10;;;;;;;-6.61;91.14;100188.72;10439150;28;20421;-65
2023/12/27 22:03:43;;;;;;;16.40;7.30;;;;;;;-6.65;90.99;100184.78;10434848;28;20044;-66
2023/12/27 22:08:46;;;;;;;13.82;6.53;;;;;;;-6.48;91.45;100214.81;10429935;28;20038;-67
2023/12/27 22:13:48;;;;;;;11.35;5.72;;;;;;;-6.53;89.96;100219.88;10435572;28;20034;-65
2023/12/27 22:18:51;;;;;;;9.45;4.78;;;;;;;-6.55;87.74;100232.56;10444437;28;20057;-66
2023/12/27 22:23:53;;;;;;;9.23;3.60;;;;;;;-7.06;88.05;100221.63;10427416;28;20041;-67
2023/12/27 22:28:56;;;;;;;7.57;4.47;;;;;;;-7.04;87.55;100232.94;10430324;28;20038;-67
2023/12/27 22:33:59;;;;;;;8.55;4.28;;;;;;;-6.64;86.85;100238.97;10437364;28;20045;-67
2023/12/27 22:39:03;;;;;;;8.38;4.65;;;;;;;-7.03;87.05;100253.25;10439774;28;20040;-68
2023/12/27 22:44:05;;;;;;;6.57;3.70;;;;;;;-6.90;86.63;100250.84;10442544;28;20536;-67
2023/12/27 22:49:07;;;;;;;5.15;3.05;;;;;;;-7.10;86.44;100271.81;10430042;28;20041;-67
2023/12/27 22:54:09;;;;;;;5.38;3.17;;;;;;;-7.36;86.16;100281.94;10418374;28;20433;-65
2023/12/27 22:59:12;;;;;;;4.40;2.97;;;;;;;-7.08;86.28;100274.31;10432218;28;20033;-66
2023/12/27 23:04:15;;;;;;;4.32;2.92;;;;;;;-6.96;86.26;100282.72;10433646;28;20072;-66
2023/12/27 23:09:18;;;;;;;4.93;3.20;;;;;;;-6.83;86.91;100281.13;10415935;28;20033;-66
2023/12/27 23:14:21;;;;;;;4.97;3.10;;;;;;;-6.75;86.38;100288.25;10434615;28;20033;-65
2023/12/27 23:19:23;;;;;;;4.88;3.30;;;;;;;-6.66;85.28;100295.19;10440163;28;20041;-65